sensor_id;sensor_type;location;lat;lon;timestamp;P1;durP1;ratioP1;P2;durP2;ratioP2
82900;SDS011;72673;50.822;3.280;2024-03-17T00:00:44;13.18;;;6.70;;
82900;SDS011;72673;50.822;3.280;2024-03-17T00:03:10;14.10;;;7.22;;
82900;SDS011;72673;50.822;3.280;2024-03-17T00:05:37;12.15;;;6.43;;
82900;SDS011;72673;50.822;3.280;2024-03-17T00:08:03;13.38;;;6.30;;
82900;SDS011;72673;50.822;3.280;2024-03-17T00:10:30;12.60;;;6.90;;
82900;SDS011;72673;50.822;3.280;2024-03-17T00:12:56;16.83;;;6.55;;
82900;SDS011;72673;50.822;3.280;2024-03-17T00:15:23;15.20;;;6.60;;
82900;SDS011;72673;50.822;3.280;2024-03-17T00:17:48;21.88;;;7.25;;
82900;SDS011;72673;50.822;3.280;2024-03-17T00:20:14;12.23;;;6.75;;
82900;SDS011;72673;50.822;3.280;2024-03-17T00:22:48;15.68;;;6.72;;
82900;SDS011;72673;50.822;3.280;2024-03-17T00:27:40;14.73;;;6.05;;
82900;SDS011;72673;50.822;3.280;2024-03-17T00:30:08;17.80;;;7.18;;
82900;SDS011;72673;50.822;3.280;2024-03-17T00:32:37;13.48;;;6.50;;
82900;SDS011;72673;50.822;3.280;2024-03-17T00:35:06;13.82;;;6.45;;
82900;SDS011;72673;50.822;3.280;2024-03-17T00:37:34;12.15;;;6.05;;
82900;SDS011;72673;50.822;3.280;2024-03-17T00:40:00;15.23;;;6.90;;
82900;SDS011;72673;50.822;3.280;2024-03-17T00:42:26;14.75;;;6.05;;
82900;SDS011;72673;50.822;3.280;2024-03-17T00:44:52;14.18;;;6.43;;
82900;SDS011;72673;50.822;3.280;2024-03-17T00:47:18;13.02;;;6.00;;
82900;SDS011;72673;50.822;3.280;2024-03-17T00:49:44;11.35;;;6.00;;
82900;SDS011;72673;50.822;3.280;2024-03-17T00:52:09;10.40;;;5.93;;
82900;SDS011;72673;50.822;3.280;2024-03-17T00:54:35;12.80;;;6.57;;
82900;SDS011;72673;50.822;3.280;2024-03-17T00:57:00;12.88;;;6.18;;
82900;SDS011;72673;50.822;3.280;2024-03-17T00:59:27;15.18;;;6.93;;
82900;SDS011;72673;50.822;3.280;2024-03-17T01:01:52;13.00;;;7.10;;
82900;SDS011;72673;50.822;3.280;2024-03-17T01:04:18;16.70;;;6.50;;
82900;SDS011;72673;50.822;3.280;2024-03-17T01:06:44;11.32;;;6.00;;
82900;SDS011;72673;50.822;3.280;2024-03-17T01:09:09;13.02;;;6.80;;
82900;SDS011;72673;50.822;3.280;2024-03-17T01:11:35;13.35;;;6.03;;
82900;SDS011;72673;50.822;3.280;2024-03-17T01:14:01;13.43;;;6.82;;
82900;SDS011;72673;50.822;3.280;2024-03-17T01:16:27;13.88;;;6.20;;
82900;SDS011;72673;50.822;3.280;2024-03-17T01:18:52;14.35;;;6.82;;
82900;SDS011;72673;50.822;3.280;2024-03-17T01:21:19;13.40;;;6.15;;
82900;SDS011;72673;50.822;3.280;2024-03-17T01:23:45;17.17;;;6.95;;
82900;SDS011;72673;50.822;3.280;2024-03-17T01:26:13;12.20;;;5.97;;
82900;SDS011;72673;50.822;3.280;2024-03-17T01:28:39;10.95;;;6.55;;
82900;SDS011;72673;50.822;3.280;2024-03-17T01:31:07;10.32;;;6.38;;
82900;SDS011;72673;50.822;3.280;2024-03-17T01:33:34;16.15;;;7.20;;
82900;SDS011;72673;50.822;3.280;2024-03-17T01:36:00;14.15;;;6.72;;
82900;SDS011;72673;50.822;3.280;2024-03-17T01:38:26;10.90;;;6.07;;
82900;SDS011;72673;50.822;3.280;2024-03-17T01:40:52;13.40;;;6.78;;
82900;SDS011;72673;50.822;3.280;2024-03-17T01:43:17;15.75;;;6.35;;
82900;SDS011;72673;50.822;3.280;2024-03-17T01:45:43;11.68;;;6.35;;
82900;SDS011;72673;50.822;3.280;2024-03-17T01:48:12;13.05;;;6.82;;
82900;SDS011;72673;50.822;3.280;2024-03-17T01:50:44;11.18;;;6.45;;
82900;SDS011;72673;50.822;3.280;2024-03-17T01:53:11;13.30;;;7.22;;
82900;SDS011;72673;50.822;3.280;2024-03-17T01:55:38;14.30;;;6.45;;
82900;SDS011;72673;50.822;3.280;2024-03-17T01:58:07;14.13;;;7.00;;
82900;SDS011;72673;50.822;3.280;2024-03-17T02:00:35;15.00;;;7.15;;
82900;SDS011;72673;50.822;3.280;2024-03-17T02:03:03;17.40;;;6.90;;
82900;SDS011;72673;50.822;3.280;2024-03-17T02:05:29;13.60;;;6.70;;
82900;SDS011;72673;50.822;3.280;2024-03-17T02:07:55;12.32;;;6.30;;
82900;SDS011;72673;50.822;3.280;2024-03-17T02:10:20;14.88;;;7.18;;
82900;SDS011;72673;50.822;3.280;2024-03-17T02:12:46;14.07;;;6.65;;
82900;SDS011;72673;50.822;3.280;2024-03-17T02:15:13;13.13;;;6.78;;
82900;SDS011;72673;50.822;3.280;2024-03-17T02:17:39;12.50;;;6.75;;
82900;SDS011;72673;50.822;3.280;2024-03-17T02:20:05;12.93;;;6.50;;
82900;SDS011;72673;50.822;3.280;2024-03-17T02:22:36;11.48;;;6.22;;
82900;SDS011;72673;50.822;3.280;2024-03-17T02:25:02;12.60;;;7.28;;
82900;SDS011;72673;50.822;3.280;2024-03-17T02:27:29;16.25;;;7.30;;
82900;SDS011;72673;50.822;3.280;2024-03-17T02:29:55;15.38;;;7.13;;
82900;SDS011;72673;50.822;3.280;2024-03-17T02:32:20;14.65;;;7.20;;
82900;SDS011;72673;50.822;3.280;2024-03-17T02:34:48;12.55;;;6.55;;
82900;SDS011;72673;50.822;3.280;2024-03-17T02:37:14;14.90;;;7.20;;
82900;SDS011;72673;50.822;3.280;2024-03-17T02:39:39;15.30;;;7.25;;
82900;SDS011;72673;50.822;3.280;2024-03-17T02:42:06;17.77;;;7.97;;
82900;SDS011;72673;50.822;3.280;2024-03-17T02:44:34;13.70;;;7.13;;
82900;SDS011;72673;50.822;3.280;2024-03-17T02:47:02;13.65;;;7.00;;
82900;SDS011;72673;50.822;3.280;2024-03-17T02:49:29;10.95;;;6.38;;
82900;SDS011;72673;50.822;3.280;2024-03-17T02:52:06;16.48;;;7.28;;
82900;SDS011;72673;50.822;3.280;2024-03-17T02:54:35;13.05;;;6.78;;
82900;SDS011;72673;50.822;3.280;2024-03-17T02:57:05;15.25;;;7.18;;
82900;SDS011;72673;50.822;3.280;2024-03-17T02:59:34;13.15;;;7.47;;
82900;SDS011;72673;50.822;3.280;2024-03-17T03:02:00;14.95;;;7.07;;
82900;SDS011;72673;50.822;3.280;2024-03-17T03:04:26;13.10;;;6.63;;
82900;SDS011;72673;50.822;3.280;2024-03-17T03:06:52;14.23;;;7.68;;
82900;SDS011;72673;50.822;3.280;2024-03-17T03:09:18;18.05;;;7.35;;
82900;SDS011;72673;50.822;3.280;2024-03-17T03:11:56;14.52;;;7.35;;
82900;SDS011;72673;50.822;3.280;2024-03-17T03:14:22;12.73;;;7.15;;
82900;SDS011;72673;50.822;3.280;2024-03-17T03:16:48;10.98;;;6.68;;
82900;SDS011;72673;50.822;3.280;2024-03-17T03:19:14;15.38;;;7.00;;
82900;SDS011;72673;50.822;3.280;2024-03-17T03:21:40;13.55;;;7.13;;
82900;SDS011;72673;50.822;3.280;2024-03-17T03:24:06;16.55;;;7.40;;
82900;SDS011;72673;50.822;3.280;2024-03-17T03:26:32;15.07;;;6.63;;
82900;SDS011;72673;50.822;3.280;2024-03-17T03:28:58;12.00;;;6.45;;
82900;SDS011;72673;50.822;3.280;2024-03-17T03:31:24;16.65;;;6.93;;
82900;SDS011;72673;50.822;3.280;2024-03-17T03:33:49;14.23;;;7.55;;
82900;SDS011;72673;50.822;3.280;2024-03-17T03:36:15;15.75;;;6.80;;
82900;SDS011;72673;50.822;3.280;2024-03-17T03:38:45;13.98;;;7.35;;
82900;SDS011;72673;50.822;3.280;2024-03-17T03:41:14;14.88;;;7.28;;
82900;SDS011;72673;50.822;3.280;2024-03-17T03:43:41;19.30;;;7.45;;
82900;SDS011;72673;50.822;3.280;2024-03-17T03:46:08;16.45;;;6.95;;
82900;SDS011;72673;50.822;3.280;2024-03-17T03:48:34;11.52;;;6.88;;
82900;SDS011;72673;50.822;3.280;2024-03-17T03:51:09;15.63;;;8.10;;
82900;SDS011;72673;50.822;3.280;2024-03-17T03:53:35;17.83;;;7.40;;
82900;SDS011;72673;50.822;3.280;2024-03-17T03:56:02;14.70;;;6.97;;
82900;SDS011;72673;50.822;3.280;2024-03-17T03:58:37;12.85;;;7.05;;
82900;SDS011;72673;50.822;3.280;2024-03-17T04:01:05;10.10;;;6.78;;
82900;SDS011;72673;50.822;3.280;2024-03-17T04:03:32;14.88;;;7.35;;
82900;SDS011;72673;50.822;3.280;2024-03-17T04:06:05;17.75;;;7.57;;
82900;SDS011;72673;50.822;3.280;2024-03-17T04:08:35;13.55;;;6.32;;
82900;SDS011;72673;50.822;3.280;2024-03-17T04:11:01;15.50;;;7.05;;
82900;SDS011;72673;50.822;3.280;2024-03-17T04:13:28;13.73;;;6.80;;
82900;SDS011;72673;50.822;3.280;2024-03-17T04:15:55;13.55;;;6.95;;
82900;SDS011;72673;50.822;3.280;2024-03-17T04:18:23;12.65;;;7.05;;
82900;SDS011;72673;50.822;3.280;2024-03-17T04:20:50;13.40;;;6.68;;
82900;SDS011;72673;50.822;3.280;2024-03-17T04:23:22;13.02;;;7.32;;
82900;SDS011;72673;50.822;3.280;2024-03-17T04:25:49;13.23;;;6.38;;
82900;SDS011;72673;50.822;3.280;2024-03-17T04:28:16;14.52;;;6.68;;
82900;SDS011;72673;50.822;3.280;2024-03-17T04:30:41;12.10;;;6.57;;
82900;SDS011;72673;50.822;3.280;2024-03-17T04:33:11;17.48;;;6.60;;
82900;SDS011;72673;50.822;3.280;2024-03-17T04:35:37;12.95;;;7.07;;
82900;SDS011;72673;50.822;3.280;2024-03-17T04:38:04;16.60;;;6.78;;
82900;SDS011;72673;50.822;3.280;2024-03-17T04:40:34;9.38;;;5.50;;
82900;SDS011;72673;50.822;3.280;2024-03-17T04:43:00;13.32;;;6.57;;
82900;SDS011;72673;50.822;3.280;2024-03-17T04:45:26;13.88;;;6.25;;
82900;SDS011;72673;50.822;3.280;2024-03-17T04:47:52;11.48;;;6.22;;
82900;SDS011;72673;50.822;3.280;2024-03-17T04:50:18;13.80;;;6.53;;
82900;SDS011;72673;50.822;3.280;2024-03-17T04:52:44;15.70;;;6.50;;
82900;SDS011;72673;50.822;3.280;2024-03-17T04:55:09;13.15;;;6.40;;
82900;SDS011;72673;50.822;3.280;2024-03-17T04:57:35;16.35;;;6.07;;
82900;SDS011;72673;50.822;3.280;2024-03-17T05:00:02;16.00;;;6.80;;
82900;SDS011;72673;50.822;3.280;2024-03-17T05:02:32;12.23;;;5.70;;
82900;SDS011;72673;50.822;3.280;2024-03-17T05:04:58;10.90;;;6.20;;
82900;SDS011;72673;50.822;3.280;2024-03-17T05:07:23;11.35;;;6.45;;
82900;SDS011;72673;50.822;3.280;2024-03-17T05:09:49;14.88;;;7.03;;
82900;SDS011;72673;50.822;3.280;2024-03-17T05:12:15;11.52;;;6.13;;
82900;SDS011;72673;50.822;3.280;2024-03-17T05:14:41;13.60;;;5.93;;
82900;SDS011;72673;50.822;3.280;2024-03-17T05:17:07;11.10;;;6.10;;
82900;SDS011;72673;50.822;3.280;2024-03-17T05:19:32;15.00;;;6.18;;
82900;SDS011;72673;50.822;3.280;2024-03-17T05:21:58;14.65;;;5.50;;
82900;SDS011;72673;50.822;3.280;2024-03-17T05:24:25;12.52;;;6.00;;
82900;SDS011;72673;50.822;3.280;2024-03-17T05:26:50;12.70;;;5.97;;
82900;SDS011;72673;50.822;3.280;2024-03-17T05:29:16;10.30;;;5.07;;
82900;SDS011;72673;50.822;3.280;2024-03-17T05:31:42;15.43;;;5.72;;
82900;SDS011;72673;50.822;3.280;2024-03-17T05:34:08;10.75;;;5.38;;
82900;SDS011;72673;50.822;3.280;2024-03-17T05:36:35;12.82;;;5.40;;
82900;SDS011;72673;50.822;3.280;2024-03-17T05:39:01;11.43;;;5.80;;
82900;SDS011;72673;50.822;3.280;2024-03-17T05:41:27;14.10;;;5.43;;
82900;SDS011;72673;50.822;3.280;2024-03-17T05:43:53;11.43;;;5.47;;
82900;SDS011;72673;50.822;3.280;2024-03-17T05:46:23;11.52;;;5.57;;
82900;SDS011;72673;50.822;3.280;2024-03-17T05:48:50;11.77;;;5.50;;
82900;SDS011;72673;50.822;3.280;2024-03-17T05:51:16;10.40;;;5.93;;
82900;SDS011;72673;50.822;3.280;2024-03-17T05:53:42;13.65;;;5.90;;
82900;SDS011;72673;50.822;3.280;2024-03-17T05:56:09;9.98;;;5.30;;
82900;SDS011;72673;50.822;3.280;2024-03-17T05:58:37;11.38;;;5.43;;
82900;SDS011;72673;50.822;3.280;2024-03-17T06:01:04;11.63;;;5.75;;
82900;SDS011;72673;50.822;3.280;2024-03-17T06:03:32;10.40;;;5.03;;
82900;SDS011;72673;50.822;3.280;2024-03-17T06:06:01;11.18;;;5.90;;
82900;SDS011;72673;50.822;3.280;2024-03-17T06:08:28;16.05;;;5.68;;
82900;SDS011;72673;50.822;3.280;2024-03-17T06:10:54;10.32;;;4.90;;
82900;SDS011;72673;50.822;3.280;2024-03-17T06:13:22;13.60;;;5.20;;
82900;SDS011;72673;50.822;3.280;2024-03-17T06:15:48;9.02;;;5.20;;
82900;SDS011;72673;50.822;3.280;2024-03-17T06:18:14;9.85;;;5.15;;
82900;SDS011;72673;50.822;3.280;2024-03-17T06:20:42;9.88;;;5.03;;
82900;SDS011;72673;50.822;3.280;2024-03-17T06:23:16;12.10;;;5.35;;
82900;SDS011;72673;50.822;3.280;2024-03-17T06:25:42;11.95;;;5.82;;
82900;SDS011;72673;50.822;3.280;2024-03-17T06:28:13;10.55;;;5.45;;
82900;SDS011;72673;50.822;3.280;2024-03-17T06:30:40;14.05;;;5.68;;
82900;SDS011;72673;50.822;3.280;2024-03-17T06:33:06;12.05;;;5.57;;
82900;SDS011;72673;50.822;3.280;2024-03-17T06:35:35;13.00;;;5.25;;
82900;SDS011;72673;50.822;3.280;2024-03-17T06:38:01;13.77;;;5.03;;
82900;SDS011;72673;50.822;3.280;2024-03-17T06:40:27;15.57;;;5.45;;
82900;SDS011;72673;50.822;3.280;2024-03-17T06:42:53;11.30;;;5.68;;
82900;SDS011;72673;50.822;3.280;2024-03-17T06:45:19;10.05;;;5.53;;
82900;SDS011;72673;50.822;3.280;2024-03-17T06:47:48;9.53;;;5.07;;
82900;SDS011;72673;50.822;3.280;2024-03-17T06:50:14;7.95;;;5.15;;
82900;SDS011;72673;50.822;3.280;2024-03-17T06:52:40;11.35;;;5.10;;
82900;SDS011;72673;50.822;3.280;2024-03-17T06:55:06;14.43;;;5.65;;
82900;SDS011;72673;50.822;3.280;2024-03-17T06:57:32;13.35;;;5.63;;
82900;SDS011;72673;50.822;3.280;2024-03-17T07:00:02;12.38;;;5.70;;
82900;SDS011;72673;50.822;3.280;2024-03-17T07:02:31;9.38;;;5.93;;
82900;SDS011;72673;50.822;3.280;2024-03-17T07:04:57;10.07;;;5.55;;
82900;SDS011;72673;50.822;3.280;2024-03-17T07:07:26;17.40;;;6.72;;
82900;SDS011;72673;50.822;3.280;2024-03-17T07:09:53;12.02;;;5.93;;
82900;SDS011;72673;50.822;3.280;2024-03-17T07:12:19;11.40;;;6.15;;
82900;SDS011;72673;50.822;3.280;2024-03-17T07:14:45;10.27;;;5.75;;
82900;SDS011;72673;50.822;3.280;2024-03-17T07:17:11;13.02;;;5.90;;
82900;SDS011;72673;50.822;3.280;2024-03-17T07:19:37;12.48;;;5.82;;
82900;SDS011;72673;50.822;3.280;2024-03-17T07:22:02;9.68;;;5.55;;
82900;SDS011;72673;50.822;3.280;2024-03-17T07:24:31;14.93;;;6.32;;
82900;SDS011;72673;50.822;3.280;2024-03-17T07:26:58;10.85;;;5.82;;
82900;SDS011;72673;50.822;3.280;2024-03-17T07:29:24;11.10;;;5.53;;
82900;SDS011;72673;50.822;3.280;2024-03-17T07:31:50;12.68;;;5.93;;
82900;SDS011;72673;50.822;3.280;2024-03-17T07:34:15;14.85;;;5.93;;
82900;SDS011;72673;50.822;3.280;2024-03-17T07:36:41;11.95;;;5.63;;
82900;SDS011;72673;50.822;3.280;2024-03-17T07:39:07;13.82;;;5.97;;
82900;SDS011;72673;50.822;3.280;2024-03-17T07:41:32;13.82;;;5.57;;
82900;SDS011;72673;50.822;3.280;2024-03-17T07:43:58;14.70;;;5.68;;
82900;SDS011;72673;50.822;3.280;2024-03-17T07:46:24;10.45;;;6.10;;
82900;SDS011;72673;50.822;3.280;2024-03-17T07:48:49;12.57;;;5.93;;
82900;SDS011;72673;50.822;3.280;2024-03-17T07:51:16;10.15;;;5.82;;
82900;SDS011;72673;50.822;3.280;2024-03-17T07:53:42;11.63;;;6.13;;
82900;SDS011;72673;50.822;3.280;2024-03-17T07:56:13;14.65;;;6.40;;
82900;SDS011;72673;50.822;3.280;2024-03-17T07:58:40;13.32;;;6.07;;
82900;SDS011;72673;50.822;3.280;2024-03-17T08:01:10;13.15;;;7.03;;
82900;SDS011;72673;50.822;3.280;2024-03-17T08:03:40;14.18;;;6.82;;
82900;SDS011;72673;50.822;3.280;2024-03-17T08:06:09;11.93;;;6.97;;
82900;SDS011;72673;50.822;3.280;2024-03-17T08:08:36;13.88;;;6.57;;
82900;SDS011;72673;50.822;3.280;2024-03-17T08:11:02;13.23;;;6.60;;
82900;SDS011;72673;50.822;3.280;2024-03-17T08:13:31;12.50;;;6.13;;
82900;SDS011;72673;50.822;3.280;2024-03-17T08:18:27;13.60;;;6.50;;
82900;SDS011;72673;50.822;3.280;2024-03-17T08:20:53;13.43;;;6.82;;
82900;SDS011;72673;50.822;3.280;2024-03-17T08:23:19;12.55;;;6.78;;
82900;SDS011;72673;50.822;3.280;2024-03-17T08:25:58;19.42;;;6.68;;
82900;SDS011;72673;50.822;3.280;2024-03-17T08:28:25;13.93;;;6.15;;
82900;SDS011;72673;50.822;3.280;2024-03-17T08:30:56;13.02;;;6.55;;
82900;SDS011;72673;50.822;3.280;2024-03-17T08:33:23;18.90;;;6.32;;
82900;SDS011;72673;50.822;3.280;2024-03-17T08:35:53;13.55;;;6.93;;
82900;SDS011;72673;50.822;3.280;2024-03-17T08:40:45;12.65;;;5.68;;
82900;SDS011;72673;50.822;3.280;2024-03-17T08:43:12;15.25;;;6.32;;
82900;SDS011;72673;50.822;3.280;2024-03-17T08:45:38;11.82;;;5.75;;
82900;SDS011;72673;50.822;3.280;2024-03-17T08:48:04;13.90;;;6.38;;
82900;SDS011;72673;50.822;3.280;2024-03-17T08:50:30;12.20;;;5.90;;
82900;SDS011;72673;50.822;3.280;2024-03-17T08:52:58;14.52;;;5.70;;
82900;SDS011;72673;50.822;3.280;2024-03-17T08:55:24;11.57;;;5.97;;
82900;SDS011;72673;50.822;3.280;2024-03-17T08:57:49;12.55;;;5.72;;
82900;SDS011;72673;50.822;3.280;2024-03-17T09:00:15;8.98;;;5.47;;
82900;SDS011;72673;50.822;3.280;2024-03-17T09:02:41;12.85;;;6.10;;
82900;SDS011;72673;50.822;3.280;2024-03-17T09:05:07;13.30;;;6.10;;
82900;SDS011;72673;50.822;3.280;2024-03-17T09:07:33;14.75;;;6.20;;
82900;SDS011;72673;50.822;3.280;2024-03-17T09:09:59;8.40;;;4.85;;
82900;SDS011;72673;50.822;3.280;2024-03-17T09:12:25;10.55;;;6.22;;
82900;SDS011;72673;50.822;3.280;2024-03-17T09:14:52;11.95;;;6.38;;
82900;SDS011;72673;50.822;3.280;2024-03-17T09:17:18;14.88;;;5.78;;
82900;SDS011;72673;50.822;3.280;2024-03-17T09:19:47;13.05;;;6.45;;
82900;SDS011;72673;50.822;3.280;2024-03-17T09:22:13;17.58;;;6.28;;
82900;SDS011;72673;50.822;3.280;2024-03-17T09:24:38;11.45;;;6.13;;
82900;SDS011;72673;50.822;3.280;2024-03-17T09:27:04;11.85;;;6.25;;
82900;SDS011;72673;50.822;3.280;2024-03-17T09:29:30;14.50;;;5.80;;
82900;SDS011;72673;50.822;3.280;2024-03-17T09:31:56;11.23;;;5.97;;
82900;SDS011;72673;50.822;3.280;2024-03-17T09:34:21;13.70;;;6.25;;
82900;SDS011;72673;50.822;3.280;2024-03-17T09:36:47;13.32;;;5.65;;
82900;SDS011;72673;50.822;3.280;2024-03-17T09:39:13;16.30;;;5.70;;
82900;SDS011;72673;50.822;3.280;2024-03-17T09:41:39;16.02;;;6.25;;
82900;SDS011;72673;50.822;3.280;2024-03-17T09:44:06;11.75;;;5.88;;
82900;SDS011;72673;50.822;3.280;2024-03-17T09:46:38;13.40;;;5.85;;
82900;SDS011;72673;50.822;3.280;2024-03-17T09:49:03;13.98;;;6.30;;
82900;SDS011;72673;50.822;3.280;2024-03-17T09:51:29;12.85;;;5.90;;
82900;SDS011;72673;50.822;3.280;2024-03-17T09:53:57;13.80;;;5.53;;
82900;SDS011;72673;50.822;3.280;2024-03-17T09:56:22;12.85;;;5.20;;
82900;SDS011;72673;50.822;3.280;2024-03-17T09:58:49;11.88;;;5.35;;
82900;SDS011;72673;50.822;3.280;2024-03-17T10:01:16;11.50;;;5.00;;
82900;SDS011;72673;50.822;3.280;2024-03-17T10:06:14;12.30;;;5.38;;
82900;SDS011;72673;50.822;3.280;2024-03-17T10:11:07;12.50;;;5.75;;
82900;SDS011;72673;50.822;3.280;2024-03-17T10:13:33;13.73;;;5.30;;
82900;SDS011;72673;50.822;3.280;2024-03-17T10:15:59;12.82;;;5.43;;
82900;SDS011;72673;50.822;3.280;2024-03-17T10:18:24;12.73;;;5.25;;
82900;SDS011;72673;50.822;3.280;2024-03-17T10:20:50;10.52;;;5.15;;
82900;SDS011;72673;50.822;3.280;2024-03-17T10:23:23;8.90;;;4.50;;
82900;SDS011;72673;50.822;3.280;2024-03-17T10:25:49;9.68;;;4.63;;
82900;SDS011;72673;50.822;3.280;2024-03-17T10:28:16;11.68;;;5.35;;
82900;SDS011;72673;50.822;3.280;2024-03-17T10:30:56;11.27;;;4.68;;
82900;SDS011;72673;50.822;3.280;2024-03-17T10:33:23;16.17;;;4.72;;
82900;SDS011;72673;50.822;3.280;2024-03-17T10:35:50;10.77;;;4.40;;
82900;SDS011;72673;50.822;3.280;2024-03-17T10:38:22;8.40;;;4.05;;
82900;SDS011;72673;50.822;3.280;2024-03-17T10:40:48;8.20;;;4.05;;
82900;SDS011;72673;50.822;3.280;2024-03-17T10:43:14;8.23;;;3.97;;
82900;SDS011;72673;50.822;3.280;2024-03-17T10:45:39;10.00;;;4.20;;
82900;SDS011;72673;50.822;3.280;2024-03-17T10:48:07;14.65;;;3.85;;
82900;SDS011;72673;50.822;3.280;2024-03-17T10:50:35;8.77;;;4.00;;
82900;SDS011;72673;50.822;3.280;2024-03-17T10:53:06;10.10;;;3.80;;
82900;SDS011;72673;50.822;3.280;2024-03-17T10:55:44;9.02;;;3.60;;
82900;SDS011;72673;50.822;3.280;2024-03-17T10:58:25;7.03;;;4.05;;
82900;SDS011;72673;50.822;3.280;2024-03-17T11:01:00;9.07;;;3.75;;
82900;SDS011;72673;50.822;3.280;2024-03-17T11:03:31;8.00;;;3.53;;
82900;SDS011;72673;50.822;3.280;2024-03-17T11:05:57;8.48;;;3.75;;
82900;SDS011;72673;50.822;3.280;2024-03-17T11:08:23;9.57;;;3.60;;
82900;SDS011;72673;50.822;3.280;2024-03-17T11:10:50;9.32;;;3.72;;
82900;SDS011;72673;50.822;3.280;2024-03-17T11:13:30;10.02;;;3.85;;
82900;SDS011;72673;50.822;3.280;2024-03-17T11:15:57;10.60;;;3.53;;
82900;SDS011;72673;50.822;3.280;2024-03-17T11:18:33;9.55;;;3.50;;
82900;SDS011;72673;50.822;3.280;2024-03-17T11:21:04;8.57;;;3.20;;
82900;SDS011;72673;50.822;3.280;2024-03-17T11:23:54;7.30;;;3.15;;
82900;SDS011;72673;50.822;3.280;2024-03-17T11:26:28;12.38;;;3.75;;
82900;SDS011;72673;50.822;3.280;2024-03-17T11:28:55;6.85;;;3.40;;
82900;SDS011;72673;50.822;3.280;2024-03-17T11:31:55;10.50;;;2.90;;
82900;SDS011;72673;50.822;3.280;2024-03-17T11:34:28;7.97;;;3.35;;
82900;SDS011;72673;50.822;3.280;2024-03-17T11:36:55;10.35;;;2.90;;
82900;SDS011;72673;50.822;3.280;2024-03-17T11:39:21;11.68;;;3.25;;
82900;SDS011;72673;50.822;3.280;2024-03-17T11:42:23;8.10;;;3.60;;
82900;SDS011;72673;50.822;3.280;2024-03-17T11:45:01;11.63;;;3.40;;
82900;SDS011;72673;50.822;3.280;2024-03-17T11:47:35;11.43;;;2.88;;
82900;SDS011;72673;50.822;3.280;2024-03-17T11:50:03;9.50;;;3.22;;
82900;SDS011;72673;50.822;3.280;2024-03-17T11:52:30;8.10;;;2.70;;
82900;SDS011;72673;50.822;3.280;2024-03-17T11:54:56;8.32;;;2.20;;
82900;SDS011;72673;50.822;3.280;2024-03-17T11:57:23;8.23;;;3.03;;
82900;SDS011;72673;50.822;3.280;2024-03-17T11:59:50;10.00;;;2.63;;
82900;SDS011;72673;50.822;3.280;2024-03-17T12:02:18;10.95;;;3.63;;
82900;SDS011;72673;50.822;3.280;2024-03-17T12:04:50;10.65;;;4.05;;
82900;SDS011;72673;50.822;3.280;2024-03-17T12:07:19;11.52;;;2.95;;
82900;SDS011;72673;50.822;3.280;2024-03-17T12:09:48;6.82;;;3.10;;
82900;SDS011;72673;50.822;3.280;2024-03-17T12:14:45;12.57;;;3.17;;
82900;SDS011;72673;50.822;3.280;2024-03-17T12:17:13;9.60;;;2.60;;
82900;SDS011;72673;50.822;3.280;2024-03-17T12:19:39;7.10;;;2.20;;
82900;SDS011;72673;50.822;3.280;2024-03-17T12:22:09;6.90;;;2.55;;
82900;SDS011;72673;50.822;3.280;2024-03-17T12:24:47;11.30;;;2.88;;
82900;SDS011;72673;50.822;3.280;2024-03-17T12:27:22;9.07;;;2.30;;
82900;SDS011;72673;50.822;3.280;2024-03-17T12:29:49;7.10;;;2.63;;
82900;SDS011;72673;50.822;3.280;2024-03-17T12:32:19;9.93;;;2.90;;
82900;SDS011;72673;50.822;3.280;2024-03-17T12:34:52;7.57;;;2.60;;
82900;SDS011;72673;50.822;3.280;2024-03-17T12:37:21;9.23;;;2.78;;
82900;SDS011;72673;50.822;3.280;2024-03-17T12:39:48;10.35;;;2.65;;
82900;SDS011;72673;50.822;3.280;2024-03-17T12:42:15;13.30;;;2.80;;
82900;SDS011;72673;50.822;3.280;2024-03-17T12:47:18;8.45;;;2.97;;
82900;SDS011;72673;50.822;3.280;2024-03-17T12:49:51;7.10;;;2.22;;
82900;SDS011;72673;50.822;3.280;2024-03-17T12:54:57;9.48;;;2.53;;
82900;SDS011;72673;50.822;3.280;2024-03-17T12:57:42;9.35;;;2.55;;
82900;SDS011;72673;50.822;3.280;2024-03-17T13:00:27;9.85;;;2.63;;
82900;SDS011;72673;50.822;3.280;2024-03-17T13:02:56;8.15;;;2.38;;
82900;SDS011;72673;50.822;3.280;2024-03-17T13:05:22;9.68;;;2.28;;
82900;SDS011;72673;50.822;3.280;2024-03-17T13:07:48;10.73;;;2.75;;
82900;SDS011;72673;50.822;3.280;2024-03-17T13:10:15;7.38;;;2.80;;
82900;SDS011;72673;50.822;3.280;2024-03-17T13:12:42;7.28;;;3.13;;
82900;SDS011;72673;50.822;3.280;2024-03-17T13:15:12;10.48;;;2.58;;
82900;SDS011;72673;50.822;3.280;2024-03-17T13:17:40;11.25;;;3.53;;
82900;SDS011;72673;50.822;3.280;2024-03-17T13:20:08;7.38;;;2.47;;
82900;SDS011;72673;50.822;3.280;2024-03-17T13:22:40;8.18;;;2.72;;
82900;SDS011;72673;50.822;3.280;2024-03-17T13:25:16;6.75;;;2.97;;
82900;SDS011;72673;50.822;3.280;2024-03-17T13:27:44;14.50;;;3.00;;
82900;SDS011;72673;50.822;3.280;2024-03-17T13:30:11;8.98;;;2.80;;
82900;SDS011;72673;50.822;3.280;2024-03-17T13:32:40;9.80;;;2.95;;
82900;SDS011;72673;50.822;3.280;2024-03-17T13:35:19;8.98;;;2.90;;
82900;SDS011;72673;50.822;3.280;2024-03-17T13:37:46;7.55;;;3.08;;
82900;SDS011;72673;50.822;3.280;2024-03-17T13:40:13;9.18;;;2.55;;
82900;SDS011;72673;50.822;3.280;2024-03-17T13:42:43;12.57;;;3.40;;
82900;SDS011;72673;50.822;3.280;2024-03-17T13:45:10;6.95;;;2.75;;
82900;SDS011;72673;50.822;3.280;2024-03-17T13:47:37;9.93;;;2.92;;
82900;SDS011;72673;50.822;3.280;2024-03-17T13:50:04;9.65;;;3.00;;
82900;SDS011;72673;50.822;3.280;2024-03-17T13:52:35;7.25;;;2.30;;
82900;SDS011;72673;50.822;3.280;2024-03-17T13:55:15;9.23;;;2.50;;
82900;SDS011;72673;50.822;3.280;2024-03-17T13:57:45;10.80;;;2.78;;
82900;SDS011;72673;50.822;3.280;2024-03-17T14:00:13;7.70;;;2.80;;
82900;SDS011;72673;50.822;3.280;2024-03-17T14:02:42;7.72;;;2.60;;
82900;SDS011;72673;50.822;3.280;2024-03-17T14:05:10;12.32;;;2.83;;
82900;SDS011;72673;50.822;3.280;2024-03-17T14:07:38;8.50;;;2.65;;
82900;SDS011;72673;50.822;3.280;2024-03-17T14:10:04;6.22;;;2.33;;
82900;SDS011;72673;50.822;3.280;2024-03-17T14:12:31;10.48;;;3.17;;
82900;SDS011;72673;50.822;3.280;2024-03-17T14:14:56;10.13;;;3.20;;
82900;SDS011;72673;50.822;3.280;2024-03-17T14:17:22;9.23;;;2.75;;
82900;SDS011;72673;50.822;3.280;2024-03-17T14:19:48;5.88;;;2.47;;
82900;SDS011;72673;50.822;3.280;2024-03-17T14:22:13;7.75;;;3.20;;
82900;SDS011;72673;50.822;3.280;2024-03-17T14:24:39;8.70;;;2.60;;
82900;SDS011;72673;50.822;3.280;2024-03-17T14:27:05;5.75;;;3.00;;
82900;SDS011;72673;50.822;3.280;2024-03-17T14:29:31;12.98;;;3.15;;
82900;SDS011;72673;50.822;3.280;2024-03-17T14:31:57;10.27;;;3.08;;
82900;SDS011;72673;50.822;3.280;2024-03-17T14:34:22;9.35;;;3.10;;
82900;SDS011;72673;50.822;3.280;2024-03-17T14:36:48;9.85;;;3.30;;
82900;SDS011;72673;50.822;3.280;2024-03-17T14:39:14;9.85;;;3.53;;
82900;SDS011;72673;50.822;3.280;2024-03-17T14:41:39;6.57;;;3.17;;
82900;SDS011;72673;50.822;3.280;2024-03-17T14:44:05;6.97;;;2.90;;
82900;SDS011;72673;50.822;3.280;2024-03-17T14:46:31;10.50;;;3.78;;
82900;SDS011;72673;50.822;3.280;2024-03-17T14:48:57;10.27;;;4.32;;
82900;SDS011;72673;50.822;3.280;2024-03-17T14:51:22;11.50;;;4.10;;
82900;SDS011;72673;50.822;3.280;2024-03-17T14:53:48;7.80;;;2.90;;
82900;SDS011;72673;50.822;3.280;2024-03-17T14:56:16;6.82;;;3.38;;
82900;SDS011;72673;50.822;3.280;2024-03-17T14:58:43;9.65;;;3.45;;
82900;SDS011;72673;50.822;3.280;2024-03-17T15:01:11;6.93;;;3.15;;